sensor_id;sensor_type;location;lat;lon;timestamp;pressure;altitude;pressure_sealevel;temperature;humidity
77587;BME280;66744;49.716;17.158;2023-10-09T00:01:07;100076.91;;;9.86;67.04
77587;BME280;66744;49.716;17.158;2023-10-09T00:04:14;100073.00;;;9.83;67.55
77587;BME280;66744;49.716;17.158;2023-10-09T00:07:16;100060.50;;;9.82;67.17
77587;BME280;66744;49.716;17.158;2023-10-09T00:10:18;100063.97;;;9.86;66.25
77587;BME280;66744;49.716;17.158;2023-10-09T00:13:24;100063.59;;;9.88;66.40
77587;BME280;66744;49.716;17.158;2023-10-09T00:16:30;100062.38;;;9.89;66.41
77587;BME280;66744;49.716;17.158;2023-10-09T00:19:34;100052.97;;;9.90;65.29
77587;BME280;66744;49.716;17.158;2023-10-09T00:22:36;100051.00;;;9.90;64.60
77587;BME280;66744;49.716;17.158;2023-10-09T00:25:50;100027.88;;;9.91;65.87
77587;BME280;66744;49.716;17.158;2023-10-09T00:29:25;100014.50;;;9.97;65.06
77587;BME280;66744;49.716;17.158;2023-10-09T00:32:29;100025.06;;;9.98;65.49
77587;BME280;66744;49.716;17.158;2023-10-09T00:35:37;100010.19;;;9.96;64.10
77587;BME280;66744;49.716;17.158;2023-10-09T00:38:55;100001.16;;;9.95;65.20
77587;BME280;66744;49.716;17.158;2023-10-09T00:41:59;100007.44;;;9.96;64.45
77587;BME280;66744;49.716;17.158;2023-10-09T00:45:03;100006.25;;;9.97;64.70
77587;BME280;66744;49.716;17.158;2023-10-09T00:48:07;99997.59;;;9.98;66.29
77587;BME280;66744;49.716;17.158;2023-10-09T00:51:09;99971.72;;;9.99;66.15
77587;BME280;66744;49.716;17.158;2023-10-09T00:54:19;99983.50;;;9.96;66.38
77587;BME280;66744;49.716;17.158;2023-10-09T00:57:20;99967.03;;;9.96;65.14
77587;BME280;66744;49.716;17.158;2023-10-09T01:00:26;99956.09;;;9.93;67.28
77587;BME280;66744;49.716;17.158;2023-10-09T01:03:34;99956.50;;;9.91;66.26
77587;BME280;66744;49.716;17.158;2023-10-09T01:06:38;99977.69;;;9.91;66.63
77587;BME280;66744;49.716;17.158;2023-10-09T01:09:44;99972.56;;;9.93;65.75
77587;BME280;66744;49.716;17.158;2023-10-09T01:12:46;99973.31;;;9.97;65.64
77587;BME280;66744;49.716;17.158;2023-10-09T01:15:48;99971.72;;;9.99;66.67
77587;BME280;66744;49.716;17.158;2023-10-09T01:18:54;99952.50;;;9.99;67.17
77587;BME280;66744;49.716;17.158;2023-10-09T01:21:58;99951.72;;;9.99;66.04
77587;BME280;66744;49.716;17.158;2023-10-09T01:25:13;99961.91;;;9.98;64.77
77587;BME280;66744;49.716;17.158;2023-10-09T01:28:14;99960.38;;;9.97;65.32
77587;BME280;66744;49.716;17.158;2023-10-09T01:31:16;99939.16;;;9.98;65.37
77587;BME280;66744;49.716;17.158;2023-10-09T01:34:26;99934.47;;;9.98;64.54
77587;BME280;66744;49.716;17.158;2023-10-09T01:37:39;99944.66;;;9.98;64.55
77587;BME280;66744;49.716;17.158;2023-10-09T01:40:44;99941.97;;;9.94;64.61
77587;BME280;66744;49.716;17.158;2023-10-09T01:43:48;99951.75;;;9.95;64.25
77587;BME280;66744;49.716;17.158;2023-10-09T01:46:54;99947.81;;;9.96;65.06
77587;BME280;66744;49.716;17.158;2023-10-09T01:49:58;99952.13;;;9.97;64.11
77587;BME280;66744;49.716;17.158;2023-10-09T01:52:59;99954.81;;;10.01;64.51
77587;BME280;66744;49.716;17.158;2023-10-09T01:56:10;99940.28;;;10.04;64.47
77587;BME280;66744;49.716;17.158;2023-10-09T01:59:15;99930.53;;;9.99;64.57
77587;BME280;66744;49.716;17.158;2023-10-09T02:02:17;99938.03;;;9.95;64.40
77587;BME280;66744;49.716;17.158;2023-10-09T02:05:27;99916.09;;;9.92;64.22
77587;BME280;66744;49.716;17.158;2023-10-09T02:08:34;99908.28;;;9.90;65.12
77587;BME280;66744;49.716;17.158;2023-10-09T02:11:36;99908.31;;;9.87;65.20
77587;BME280;66744;49.716;17.158;2023-10-09T02:14:42;99924.03;;;9.83;66.07
77587;BME280;66744;49.716;17.158;2023-10-09T02:17:45;99914.63;;;9.84;66.07
77587;BME280;66744;49.716;17.158;2023-10-09T02:24:07;99930.63;;;9.89;65.57
77587;BME280;66744;49.716;17.158;2023-10-09T02:27:27;99924.44;;;9.85;66.41
77587;BME280;66744;49.716;17.158;2023-10-09T02:30:54;99915.06;;;9.82;66.28
77587;BME280;66744;49.716;17.158;2023-10-09T02:34:01;99909.91;;;9.84;66.12
77587;BME280;66744;49.716;17.158;2023-10-09T02:37:05;99910.28;;;9.86;66.52
77587;BME280;66744;49.716;17.158;2023-10-09T02:40:07;99918.53;;;9.86;67.01
77587;BME280;66744;49.716;17.158;2023-10-09T02:43:09;99920.53;;;9.82;66.91
77587;BME280;66744;49.716;17.158;2023-10-09T02:46:19;99930.31;;;9.83;67.13
77587;BME280;66744;49.716;17.158;2023-10-09T02:49:21;99862.91;;;9.82;68.60
77587;BME280;66744;49.716;17.158;2023-10-09T02:52:22;99828.41;;;9.81;68.09
77587;BME280;66744;49.716;17.158;2023-10-09T02:55:26;99866.00;;;9.84;68.68
77587;BME280;66744;49.716;17.158;2023-10-09T02:58:29;99904.06;;;9.82;67.21
77587;BME280;66744;49.716;17.158;2023-10-09T03:01:38;99835.81;;;9.84;67.54
77587;BME280;66744;49.716;17.158;2023-10-09T03:04:39;99882.47;;;9.84;69.44
77587;BME280;66744;49.716;17.158;2023-10-09T03:07:42;99854.25;;;9.84;68.75
77587;BME280;66744;49.716;17.158;2023-10-09T03:10:45;99828.38;;;9.85;68.76
77587;BME280;66744;49.716;17.158;2023-10-09T03:13:46;99814.66;;;9.85;68.67
77587;BME280;66744;49.716;17.158;2023-10-09T03:16:51;99844.03;;;9.88;68.55
77587;BME280;66744;49.716;17.158;2023-10-09T03:19:52;99838.94;;;9.86;68.65
77587;BME280;66744;49.716;17.158;2023-10-09T03:22:53;99834.66;;;9.85;69.91
77587;BME280;66744;49.716;17.158;2023-10-09T03:25:55;99843.63;;;9.86;68.89
77587;BME280;66744;49.716;17.158;2023-10-09T03:28:58;99825.63;;;9.85;69.40
77587;BME280;66744;49.716;17.158;2023-10-09T03:32:02;99776.59;;;9.87;70.21
77587;BME280;66744;49.716;17.158;2023-10-09T03:35:04;99777.41;;;9.84;68.66
77587;BME280;66744;49.716;17.158;2023-10-09T03:38:07;99760.91;;;9.87;68.70
77587;BME280;66744;49.716;17.158;2023-10-09T03:41:17;99758.16;;;9.87;67.54
77587;BME280;66744;49.716;17.158;2023-10-09T03:44:20;99755.81;;;9.86;68.51
77587;BME280;66744;49.716;17.158;2023-10-09T03:47:21;99743.66;;;9.87;68.21
77587;BME280;66744;49.716;17.158;2023-10-09T03:50:25;99744.00;;;9.89;68.67
77587;BME280;66744;49.716;17.158;2023-10-09T03:53:36;99762.06;;;9.90;68.44
77587;BME280;66744;49.716;17.158;2023-10-09T03:56:37;99771.84;;;9.91;69.11
77587;BME280;66744;49.716;17.158;2023-10-09T03:59:39;99766.75;;;9.89;69.68
77587;BME280;66744;49.716;17.158;2023-10-09T04:02:41;99785.25;;;9.85;69.45
77587;BME280;66744;49.716;17.158;2023-10-09T04:05:43;99742.88;;;9.86;70.28
77587;BME280;66744;49.716;17.158;2023-10-09T04:08:44;99722.06;;;9.89;69.59
77587;BME280;66744;49.716;17.158;2023-10-09T04:11:51;99712.25;;;9.91;69.02
77587;BME280;66744;49.716;17.158;2023-10-09T04:15:11;99720.47;;;9.91;69.29
77587;BME280;66744;49.716;17.158;2023-10-09T04:18:16;99731.38;;;9.95;70.17
77587;BME280;66744;49.716;17.158;2023-10-09T04:21:17;99732.16;;;9.95;70.60
77587;BME280;66744;49.716;17.158;2023-10-09T04:24:34;99713.75;;;9.96;69.66
77587;BME280;66744;49.716;17.158;2023-10-09T04:27:45;99730.16;;;9.99;70.09
77587;BME280;66744;49.716;17.158;2023-10-09T04:30:48;99747.00;;;10.01;69.05
77587;BME280;66744;49.716;17.158;2023-10-09T04:33:59;99728.19;;;10.00;69.60
77587;BME280;66744;49.716;17.158;2023-10-09T04:37:23;99696.09;;;9.97;69.35
77587;BME280;66744;49.716;17.158;2023-10-09T04:40:40;99683.53;;;9.96;69.09
77587;BME280;66744;49.716;17.158;2023-10-09T04:43:47;99680.41;;;9.97;69.19
77587;BME280;66744;49.716;17.158;2023-10-09T04:46:52;99684.28;;;10.00;71.05
77587;BME280;66744;49.716;17.158;2023-10-09T04:50:11;99678.38;;;10.01;70.93
77587;BME280;66744;49.716;17.158;2023-10-09T04:53:15;99667.38;;;10.01;69.26
77587;BME280;66744;49.716;17.158;2023-10-09T04:56:16;99669.44;;;9.97;70.25
77587;BME280;66744;49.716;17.158;2023-10-09T04:59:20;99674.47;;;9.99;70.63
77587;BME280;66744;49.716;17.158;2023-10-09T05:02:25;99657.25;;;9.98;69.49
77587;BME280;66744;49.716;17.158;2023-10-09T05:05:37;99634.56;;;9.94;70.13
77587;BME280;66744;49.716;17.158;2023-10-09T05:08:43;99649.03;;;9.95;69.54
77587;BME280;66744;49.716;17.158;2023-10-09T05:11:47;99647.56;;;9.90;69.00
77587;BME280;66744;49.716;17.158;2023-10-09T05:14:54;99649.16;;;9.88;67.53
77587;BME280;66744;49.716;17.158;2023-10-09T05:18:10;99628.41;;;9.87;68.33
77587;BME280;66744;49.716;17.158;2023-10-09T05:21:17;99606.50;;;9.83;68.55
77587;BME280;66744;49.716;17.158;2023-10-09T05:24:36;99617.47;;;9.83;67.24
77587;BME280;66744;49.716;17.158;2023-10-09T05:27:46;99611.97;;;9.83;67.55
77587;BME280;66744;49.716;17.158;2023-10-09T05:30:51;99599.88;;;9.81;66.99
77587;BME280;66744;49.716;17.158;2023-10-09T05:34:03;99589.34;;;9.79;67.23
77587;BME280;66744;49.716;17.158;2023-10-09T05:37:07;99583.84;;;9.79;66.22
77587;BME280;66744;49.716;17.158;2023-10-09T05:40:26;99564.63;;;9.79;65.81
77587;BME280;66744;49.716;17.158;2023-10-09T05:43:32;99550.13;;;9.79;66.71
77587;BME280;66744;49.716;17.158;2023-10-09T05:46:53;99542.31;;;9.77;66.67
77587;BME280;66744;49.716;17.158;2023-10-09T05:50:14;99545.47;;;9.76;66.62
77587;BME280;66744;49.716;17.158;2023-10-09T05:53:15;99555.69;;;9.75;65.31
77587;BME280;66744;49.716;17.158;2023-10-09T05:56:39;99563.91;;;9.75;65.43
77587;BME280;66744;49.716;17.158;2023-10-09T05:59:58;99585.03;;;9.78;65.71
77587;BME280;66744;49.716;17.158;2023-10-09T06:03:18;99615.16;;;9.82;66.72
77587;BME280;66744;49.716;17.158;2023-10-09T06:06:21;99617.44;;;9.87;66.12
77587;BME280;66744;49.716;17.158;2023-10-09T06:09:34;99615.47;;;9.87;65.40
77587;BME280;66744;49.716;17.158;2023-10-09T06:12:50;99612.38;;;9.85;65.39
77587;BME280;66744;49.716;17.158;2023-10-09T06:15:57;99617.06;;;9.85;65.45
77587;BME280;66744;49.716;17.158;2023-10-09T06:19:20;99610.81;;;9.84;65.71
77587;BME280;66744;49.716;17.158;2023-10-09T06:22:24;99611.94;;;9.87;66.96
77587;BME280;66744;49.716;17.158;2023-10-09T06:25:44;99612.38;;;9.85;65.55
77587;BME280;66744;49.716;17.158;2023-10-09T06:29:03;99602.91;;;9.86;65.86
77587;BME280;66744;49.716;17.158;2023-10-09T06:32:18;99589.59;;;9.88;66.97
77587;BME280;66744;49.716;17.158;2023-10-09T06:35:19;99581.69;;;9.90;65.68
77587;BME280;66744;49.716;17.158;2023-10-09T06:38:23;99578.59;;;9.88;65.44
77587;BME280;66744;49.716;17.158;2023-10-09T06:41:34;99582.53;;;9.87;65.86
77587;BME280;66744;49.716;17.158;2023-10-09T06:44:35;99574.69;;;9.86;65.42
77587;BME280;66744;49.716;17.158;2023-10-09T06:47:54;99561.75;;;9.86;66.55
77587;BME280;66744;49.716;17.158;2023-10-09T06:51:31;99532.00;;;9.85;66.72
77587;BME280;66744;49.716;17.158;2023-10-09T06:54:32;99526.56;;;9.81;66.56
77587;BME280;66744;49.716;17.158;2023-10-09T06:57:38;99527.41;;;9.78;67.24
77587;BME280;66744;49.716;17.158;2023-10-09T07:00:50;99525.78;;;9.81;66.12
77587;BME280;66744;49.716;17.158;2023-10-09T07:04:00;99530.19;;;9.75;66.84
77587;BME280;66744;49.716;17.158;2023-10-09T07:07:11;99514.94;;;9.74;67.50
77587;BME280;66744;49.716;17.158;2023-10-09T07:10:19;99521.56;;;9.76;65.98
77587;BME280;66744;49.716;17.158;2023-10-09T07:13:40;99512.13;;;9.77;66.77
77587;BME280;66744;49.716;17.158;2023-10-09T07:16:41;99501.59;;;9.76;65.52
77587;BME280;66744;49.716;17.158;2023-10-09T07:19:58;99501.97;;;9.74;65.58
77587;BME280;66744;49.716;17.158;2023-10-09T07:23:16;99483.16;;;9.76;65.80
77587;BME280;66744;49.716;17.158;2023-10-09T07:26:18;99472.19;;;9.76;67.31
77587;BME280;66744;49.716;17.158;2023-10-09T07:29:20;99464.28;;;9.78;68.47
77587;BME280;66744;49.716;17.158;2023-10-09T07:32:24;99449.03;;;9.77;67.34
77587;BME280;66744;49.716;17.158;2023-10-09T07:35:33;99480.34;;;9.80;67.85
77587;BME280;66744;49.716;17.158;2023-10-09T07:38:43;99479.88;;;9.85;68.12
77587;BME280;66744;49.716;17.158;2023-10-09T07:41:46;99474.31;;;9.88;67.83
77587;BME280;66744;49.716;17.158;2023-10-09T07:44:57;99462.19;;;9.86;66.55
77587;BME280;66744;49.716;17.158;2023-10-09T07:47:59;99460.28;;;9.83;66.43
77587;BME280;66744;49.716;17.158;2023-10-09T07:51:00;99455.66;;;9.80;67.17
77587;BME280;66744;49.716;17.158;2023-10-09T07:54:06;99448.13;;;9.84;68.07
77587;BME280;66744;49.716;17.158;2023-10-09T07:57:10;99448.84;;;9.88;67.94
77587;BME280;66744;49.716;17.158;2023-10-09T08:00:16;99443.41;;;9.84;67.05
77587;BME280;66744;49.716;17.158;2023-10-09T08:03:36;99443.75;;;9.86;66.20
77587;BME280;66744;49.716;17.158;2023-10-09T08:06:38;99453.25;;;9.82;66.34
77587;BME280;66744;49.716;17.158;2023-10-09T08:09:40;99446.56;;;9.83;67.33
77587;BME280;66744;49.716;17.158;2023-10-09T08:12:49;99423.16;;;9.78;66.58
77587;BME280;66744;49.716;17.158;2023-10-09T08:15:55;99425.81;;;9.82;67.24
77587;BME280;66744;49.716;17.158;2023-10-09T08:18:57;99441.41;;;9.88;66.68
77587;BME280;66744;49.716;17.158;2023-10-09T08:21:59;99464.47;;;9.91;65.79
77587;BME280;66744;49.716;17.158;2023-10-09T08:25:38;99456.94;;;9.95;66.66
77587;BME280;66744;49.716;17.158;2023-10-09T08:28:58;99447.94;;;9.94;67.06
77587;BME280;66744;49.716;17.158;2023-10-09T08:32:25;99437.72;;;9.95;66.97
77587;BME280;66744;49.716;17.158;2023-10-09T08:35:43;99454.97;;;9.95;67.34
77587;BME280;66744;49.716;17.158;2023-10-09T08:38:50;99444.00;;;9.95;66.97
77587;BME280;66744;49.716;17.158;2023-10-09T08:41:54;99438.09;;;9.97;67.62
77587;BME280;66744;49.716;17.158;2023-10-09T08:45:10;99438.44;;;9.99;67.22
77587;BME280;66744;49.716;17.158;2023-10-09T08:48:15;99445.50;;;10.00;67.38
77587;BME280;66744;49.716;17.158;2023-10-09T08:51:17;99447.44;;;9.99;68.40
77587;BME280;66744;49.716;17.158;2023-10-09T08:54:20;99441.53;;;10.01;68.83
77587;BME280;66744;49.716;17.158;2023-10-09T08:57:22;99427.41;;;10.02;66.88
77587;BME280;66744;49.716;17.158;2023-10-09T09:00:23;99414.09;;;10.01;67.64
77587;BME280;66744;49.716;17.158;2023-10-09T09:03:24;99406.28;;;9.99;68.13
77587;BME280;66744;49.716;17.158;2023-10-09T09:06:36;99398.00;;;10.03;68.25
77587;BME280;66744;49.716;17.158;2023-10-09T09:09:37;99411.28;;;10.04;67.84
77587;BME280;66744;49.716;17.158;2023-10-09T09:12:39;99404.16;;;10.07;68.01
77587;BME280;66744;49.716;17.158;2023-10-09T09:15:46;99409.19;;;10.12;68.91
77587;BME280;66744;49.716;17.158;2023-10-09T09:18:59;99407.59;;;10.15;68.82
77587;BME280;66744;49.716;17.158;2023-10-09T09:22:10;99434.19;;;10.18;68.37
77587;BME280;66744;49.716;17.158;2023-10-09T09:25:14;99442.78;;;10.20;69.04
77587;BME280;66744;49.716;17.158;2023-10-09T09:28:16;99429.81;;;10.20;67.24
77587;BME280;66744;49.716;17.158;2023-10-09T09:31:23;99425.47;;;10.23;67.45
77587;BME280;66744;49.716;17.158;2023-10-09T09:34:24;99415.19;;;10.27;68.88
77587;BME280;66744;49.716;17.158;2023-10-09T09:37:32;99417.16;;;10.26;67.32
77587;BME280;66744;49.716;17.158;2023-10-09T09:40:54;99425.41;;;10.26;68.82
77587;BME280;66744;49.716;17.158;2023-10-09T09:43:58;99419.06;;;10.29;68.16
77587;BME280;66744;49.716;17.158;2023-10-09T09:47:03;99415.03;;;10.34;68.66
77587;BME280;66744;49.716;17.158;2023-10-09T09:50:07;99423.63;;;10.36;67.66
77587;BME280;66744;49.716;17.158;2023-10-09T09:53:23;99418.47;;;10.38;68.51
77587;BME280;66744;49.716;17.158;2023-10-09T09:56:25;99418.03;;;10.39;69.19
77587;BME280;66744;49.716;17.158;2023-10-09T09:59:29;99398.81;;;10.39;69.46
77587;BME280;66744;49.716;17.158;2023-10-09T10:02:35;99399.59;;;10.40;68.45
77587;BME280;66744;49.716;17.158;2023-10-09T10:05:38;99391.34;;;10.40;68.53
77587;BME280;66744;49.716;17.158;2023-10-09T10:08:43;99387.84;;;10.39;68.04
77587;BME280;66744;49.716;17.158;2023-10-09T10:11:45;99380.75;;;10.42;67.92
77587;BME280;66744;49.716;17.158;2023-10-09T10:14:58;99397.91;;;10.46;67.93
77587;BME280;66744;49.716;17.158;2023-10-09T10:18:15;99400.25;;;10.47;67.76
77587;BME280;66744;49.716;17.158;2023-10-09T10:21:23;99400.91;;;10.51;67.37
77587;BME280;66744;49.716;17.158;2023-10-09T10:28:15;99398.47;;;10.57;67.54
77587;BME280;66744;49.716;17.158;2023-10-09T10:31:14;99392.97;;;10.57;68.37
77587;BME280;66744;49.716;17.158;2023-10-09T10:34:17;99384.03;;;10.53;67.33
77587;BME280;66744;49.716;17.158;2023-10-09T10:37:37;99388.34;;;10.54;68.41
77587;BME280;66744;49.716;17.158;2023-10-09T10:40:45;99388.66;;;10.56;69.40
77587;BME280;66744;49.716;17.158;2023-10-09T10:44:00;99376.81;;;10.59;69.62
77587;BME280;66744;49.716;17.158;2023-10-09T10:47:26;99358.88;;;10.54;68.72
77587;BME280;66744;49.716;17.158;2023-10-09T10:50:33;99361.28;;;10.52;68.22
77587;BME280;66744;49.716;17.158;2023-10-09T10:53:37;99366.00;;;10.52;69.78
77587;BME280;66744;49.716;17.158;2023-10-09T10:56:54;99367.22;;;10.51;69.31
77587;BME280;66744;49.716;17.158;2023-10-09T10:59:58;99358.59;;;10.49;69.25
77587;BME280;66744;49.716;17.158;2023-10-09T11:03:20;99374.66;;;10.50;67.97
77587;BME280;66744;49.716;17.158;2023-10-09T11:06:36;99368.06;;;10.48;69.64
77587;BME280;66744;49.716;17.158;2023-10-09T11:09:48;99378.59;;;10.49;68.47
77587;BME280;66744;49.716;17.158;2023-10-09T11:12:59;99352.75;;;10.47;69.50
77587;BME280;66744;49.716;17.158;2023-10-09T11:16:09;99351.13;;;10.49;69.52
77587;BME280;66744;49.716;17.158;2023-10-09T11:19:20;99352.63;;;10.54;67.75
77587;BME280;66744;49.716;17.158;2023-10-09T11:22:28;99364.03;;;10.52;69.53
77587;BME280;66744;49.716;17.158;2023-10-09T11:25:29;99373.88;;;10.50;70.43
77587;BME280;66744;49.716;17.158;2023-10-09T11:28:31;99361.84;;;10.44;69.37
77587;BME280;66744;49.716;17.158;2023-10-09T11:32:07;99356.78;;;10.42;71.30
77587;BME280;66744;49.716;17.158;2023-10-09T11:35:13;99340.66;;;10.44;70.49
77587;BME280;66744;49.716;17.158;2023-10-09T11:38:18;99308.47;;;10.45;71.94
77587;BME280;66744;49.716;17.158;2023-10-09T11:41:22;99297.75;;;10.50;70.08
77587;BME280;66744;49.716;17.158;2023-10-09T11:44:38;99321.63;;;10.53;69.98
77587;BME280;66744;49.716;17.158;2023-10-09T11:47:40;99332.63;;;10.53;70.79
77587;BME280;66744;49.716;17.158;2023-10-09T11:50:55;99347.34;;;10.43;71.77
77587;BME280;66744;49.716;17.158;2023-10-09T11:54:06;99346.81;;;10.32;72.76
77587;BME280;66744;49.716;17.158;2023-10-09T11:57:09;99345.69;;;10.30;72.32
77587;BME280;66744;49.716;17.158;2023-10-09T12:00:11;99332.38;;;10.28;71.18
77587;BME280;66744;49.716;17.158;2023-10-09T12:03:26;99325.25;;;10.31;73.32
77587;BME280;66744;49.716;17.158;2023-10-09T12:06:33;99331.19;;;10.29;73.40
77587;BME280;66744;49.716;17.158;2023-10-09T12:09:37;99325.34;;;10.27;72.54
77587;BME280;66744;49.716;17.158;2023-10-09T12:12:38;99332.53;;;10.21;72.96
77587;BME280;66744;49.716;17.158;2023-10-09T12:15:41;99308.19;;;10.23;72.12
77587;BME280;66744;49.716;17.158;2023-10-09T12:18:46;99294.78;;;10.25;73.96
77587;BME280;66744;49.716;17.158;2023-10-09T12:21:53;99307.66;;;10.28;73.52
77587;BME280;66744;49.716;17.158;2023-10-09T12:24:55;99307.72;;;10.25;73.73
77587;BME280;66744;49.716;17.158;2023-10-09T12:28:01;99305.94;;;10.18;73.32
77587;BME280;66744;49.716;17.158;2023-10-09T12:31:03;99313.41;;;10.18;73.19
77587;BME280;66744;49.716;17.158;2023-10-09T12:34:04;99311.94;;;10.10;74.10
77587;BME280;66744;49.716;17.158;2023-10-09T12:37:06;99321.47;;;10.05;74.31
77587;BME280;66744;49.716;17.158;2023-10-09T12:40:08;99321.06;;;10.07;74.07
77587;BME280;66744;49.716;17.158;2023-10-09T12:43:11;99322.59;;;10.07;74.51
77587;BME280;66744;49.716;17.158;2023-10-09T12:46:21;99313.50;;;10.11;74.51
77587;BME280;66744;49.716;17.158;2023-10-09T12:49:26;99310.72;;;10.14;75.70
77587;BME280;66744;49.716;17.158;2023-10-09T12:52:27;99307.91;;;10.18;74.44
77587;BME280;66744;49.716;17.158;2023-10-09T12:55:30;99297.59;;;10.22;75.38
77587;BME280;66744;49.716;17.158;2023-10-09T12:58:35;99298.75;;;10.24;73.80
77587;BME280;66744;49.716;17.158;2023-10-09T13:01:41;99299.88;;;10.27;73.99
77587;BME280;66744;49.716;17.158;2023-10-09T13:04:45;99302.16;;;10.28;73.62
77587;BME280;66744;49.716;17.158;2023-10-09T13:07:46;99313.16;;;10.28;73.70
77587;BME280;66744;49.716;17.158;2023-10-09T13:10:49;99302.16;;;10.28;74.65
77587;BME280;66744;49.716;17.158;2023-10-09T13:14:00;99297.03;;;10.30;75.61
77587;BME280;66744;49.716;17.158;2023-10-09T13:17:12;99291.44;;;10.34;75.13
77587;BME280;66744;49.716;17.158;2023-10-09T13:20:14;99289.81;;;10.36;73.93
77587;BME280;66744;49.716;17.158;2023-10-09T13:23:18;99295.31;;;10.36;75.19
77587;BME280;66744;49.716;17.158;2023-10-09T13:26:20;99282.47;;;10.33;74.21
77587;BME280;66744;49.716;17.158;2023-10-09T13:29:28;99277.72;;;10.34;74.83
77587;BME280;66744;49.716;17.158;2023-10-09T13:32:34;99283.22;;;10.34;75.07
77587;BME280;66744;49.716;17.158;2023-10-09T13:35:36;99302.44;;;10.34;75.17
77587;BME280;66744;49.716;17.158;2023-10-09T13:38:49;99294.28;;;10.30;75.68
77587;BME280;66744;49.716;17.158;2023-10-09T13:41:57;99291.97;;;10.29;74.10
77587;BME280;66744;49.716;17.158;2023-10-09T13:44:59;99278.31;;;10.25;74.23
77587;BME280;66744;49.716;17.158;2023-10-09T13:48:05;99275.81;;;10.31;74.30
77587;BME280;66744;49.716;17.158;2023-10-09T13:51:12;99276.53;;;10.35;74.72
77587;BME280;66744;49.716;17.158;2023-10-09T13:54:20;99281.94;;;10.38;74.34
77587;BME280;66744;49.716;17.158;2023-10-09T13:57:39;99273.25;;;10.40;74.54
77587;BME280;66744;49.716;17.158;2023-10-09T14:00:44;99276.38;;;10.42;75.11
77587;BME280;66744;49.716;17.158;2023-10-09T14:03:47;99272.84;;;10.41;74.72
77587;BME280;66744;49.716;17.158;2023-10-09T14:06:50;99268.47;;;10.44;73.10
77587;BME280;66744;49.716;17.158;2023-10-09T14:09:57;99267.19;;;10.48;73.40
77587;BME280;66744;49.716;17.158;2023-10-09T14:13:08;99256.97;;;10.49;74.91
77587;BME280;66744;49.716;17.158;2023-10-09T14:16:13;99256.88;;;10.52;74.68
77587;BME280;66744;49.716;17.158;2023-10-09T14:19:24;99246.75;;;10.49;73.84
77587;BME280;66744;49.716;17.158;2023-10-09T14:22:26;99256.88;;;10.52;75.06
77587;BME280;66744;49.716;17.158;2023-10-09T14:25:28;99247.47;;;10.53;75.75
77587;BME280;66744;49.716;17.158;2023-10-09T14:28:30;99250.13;;;10.57;75.30
77587;BME280;66744;49.716;17.158;2023-10-09T14:31:32;99243.00;;;10.59;75.79
77587;BME280;66744;49.716;17.158;2023-10-09T14:34:40;99241.78;;;10.60;76.35
77587;BME280;66744;49.716;17.158;2023-10-09T14:37:50;99241.44;;;10.58;74.91
77587;BME280;66744;49.716;17.158;2023-10-09T14:40:52;99243.50;;;10.54;75.49
77587;BME280;66744;49.716;17.158;2023-10-09T14:43:58;99223.50;;;10.54;75.07
77587;BME280;66744;49.716;17.158;2023-10-09T14:47:00;99234.91;;;10.52;75.09
77587;BME280;66744;49.716;17.158;2023-10-09T14:50:01;99237.25;;;10.54;74.33
77587;BME280;66744;49.716;17.158;2023-10-09T14:53:09;99240.00;;;10.54;76.37
77587;BME280;66744;49.716;17.158;2023-10-09T14:56:10;99253.03;;;10.50;76.81
77587;BME280;66744;49.716;17.158;2023-10-09T14:59:16;99265.72;;;10.44;76.74
77587;BME280;66744;49.716;17.158;2023-10-09T15:02:20;99259.53;;;10.40;76.00
77587;BME280;66744;49.716;17.158;2023-10-09T15:05:24;99262.03;;;10.34;77.44
77587;BME280;66744;49.716;17.158;2023-10-09T15:08:25;99259.28;;;10.34;76.43
77587;BME280;66744;49.716;17.158;2023-10-09T15:11:28;99252.50;;;10.39;77.14
77587;BME280;66744;49.716;17.158;2023-10-09T15:14:29;99252.41;;;10.42;76.13
77587;BME280;66744;49.716;17.158;2023-10-09T15:17:31;99243.31;;;10.45;77.38
77587;BME280;66744;49.716;17.158;2023-10-09T15:20:35;99250.69;;;10.48;75.50
77587;BME280;66744;49.716;17.158;2023-10-09T15:23:36;99250.63;;;10.52;77.16
77587;BME280;66744;49.716;17.158;2023-10-09T15:26:37;99258.06;;;10.51;75.39
77587;BME280;66744;49.716;17.158;2023-10-09T15:29:39;99249.44;;;10.53;76.65
77587;BME280;66744;49.716;17.158;2023-10-09T15:32:45;99259.63;;;10.52;76.66
77587;BME280;66744;49.716;17.158;2023-10-09T15:35:47;99250.97;;;10.54;76.93
77587;BME280;66744;49.716;17.158;2023-10-09T15:38:48;99254.47;;;10.54;76.91
77587;BME280;66744;49.716;17.158;2023-10-09T15:41:50;99249.34;;;10.56;76.20
77587;BME280;66744;49.716;17.158;2023-10-09T15:44:52;99252.50;;;10.55;77.12
77587;BME280;66744;49.716;17.158;2023-10-09T15:47:55;99240.75;;;10.54;75.93
77587;BME280;66744;49.716;17.158;2023-10-09T15:50:56;99249.75;;;10.55;75.93
77587;BME280;66744;49.716;17.158;2023-10-09T15:53:58;99259.22;;;10.54;75.76
77587;BME280;66744;49.716;17.158;2023-10-09T15:56:59;99261.97;;;10.54;75.89
77587;BME280;66744;49.716;17.158;2023-10-09T16:00:00;99272.25;;;10.50;76.31
77587;BME280;66744;49.716;17.158;2023-10-09T16:03:04;99277.81;;;10.46;76.92
77587;BME280;66744;49.716;17.158;2023-10-09T16:06:08;99279.88;;;10.42;77.29
77587;BME280;66744;49.716;17.158;2023-10-09T16:09:12;99290.44;;;10.44;77.46
77587;BME280;66744;49.716;17.158;2023-10-09T16:12:22;99288.03;;;10.46;77.21
77587;BME280;66744;49.716;17.158;2023-10-09T16:15:24;99275.06;;;10.46;76.36
77587;BME280;66744;49.716;17.158;2023-10-09T16:18:28;99283.25;;;10.50;76.07
77587;BME280;66744;49.716;17.158;2023-10-09T16:21:29;99287.88;;;10.53;77.32
77587;BME280;66744;49.716;17.158;2023-10-09T16:24:33;99298.44;;;10.54;75.86
77587;BME280;66744;49.716;17.158;2023-10-09T16:27:36;99312.16;;;10.54;76.84
77587;BME280;66744;49.716;17.158;2023-10-09T16:30:41;99307.97;;;10.50;76.19